Time;durP1;ratioP1;P1;durP2;ratioP2;P2;SDS_P1;SDS_P2;PMS_P1;PMS_P2;Temp;Humidity;BMP_temperature;BMP_pressure;BME280_temperature;BME280_humidity;BME280_pressure;Samples;Min_cycle;Max_cycle;Signal;HPM_P1;HPM_P2
2020/12/17 00:01:27;;;;;;;19.25;12.77;;;;;;;3.79;86.21;96752.19;4901066;29;20033;-73
2020/12/17 00:03:53;;;;;;;15.25;11.45;;;;;;;3.80;85.92;96755.56;4900580;29;20036;-75
2020/12/17 00:06:19;;;;;;;13.80;10.85;;;;;;;3.80;86.08;96760.75;4900601;29;20393;-75
2020/12/17 00:08:45;;;;;;;14.50;10.82;;;;;;;3.82;86.23;96759.66;4900725;29;20037;-75
2020/12/17 00:11:11;;;;;;;13.73;10.85;;;;;;;3.81;85.97;96755.41;4901141;29;20047;-75
2020/12/17 00:13:38;;;;;;;14.25;10.18;;;;;;;3.81;86.25;96752.03;4900268;29;20047;-75
2020/12/17 00:16:04;;;;;;;13.27;10.73;;;;;;;3.80;86.17;96742.59;4884035;29;20040;-75
2020/12/17 00:18:30;;;;;;;17.38;10.77;;;;;;;3.81;86.17;96741.66;4900605;29;20385;-75
2020/12/17 00:20:56;;;;;;;17.38;10.93;;;;;;;3.81;86.22;96746.84;4900213;29;20048;-75
2020/12/17 00:23:22;;;;;;;15.80;10.95;;;;;;;3.78;85.97;96744.56;4883454;29;20040;-75
2020/12/17 00:25:48;;;;;;;14.07;10.90;;;;;;;3.77;85.96;96746.34;4900818;29;20462;-74
2020/12/17 00:28:14;;;;;;;16.08;11.15;;;;;;;3.76;86.14;96749.09;4883158;29;20041;-75
2020/12/17 00:30:40;;;;;;;15.90;11.38;;;;;;;3.74;85.90;96749.28;4900280;29;20063;-75
2020/12/17 00:33:06;;;;;;;17.42;11.15;;;;;;;3.73;85.91;96746.84;4900357;29;20465;-75
2020/12/17 00:35:33;;;;;;;15.20;10.45;;;;;;;3.72;85.91;96751.25;4900149;29;20048;-75
2020/12/17 00:38:04;;;;;;;18.90;11.85;;;;;;;3.69;85.70;96750.75;4900198;29;20028;-75
2020/12/17 00:40:39;;;;;;;17.80;11.32;;;;;;;3.62;85.89;96742.84;4884973;29;20078;-75
2020/12/17 00:43:29;;;;;;;15.80;11.75;;;;;;;3.55;85.45;96753.06;4887751;29;20500;-75
2020/12/17 00:46:20;;;;;;;17.15;11.52;;;;;;;3.44;85.48;96748.22;4899875;29;20044;-75
2020/12/17 00:49:00;;;;;;;14.90;10.20;;;;;;;3.36;85.56;96748.22;4900430;29;20033;-75
2020/12/17 00:51:43;;;;;;;15.10;10.27;;;;;;;3.34;85.85;96748.41;4900214;29;20504;-75
2020/12/17 00:54:30;;;;;;;14.90;10.75;;;;;;;3.35;85.80;96741.44;4899738;29;20040;-74
2020/12/17 00:57:30;;;;;;;14.88;10.45;;;;;;;3.33;85.59;96741.59;4885710;29;20061;-75
2020/12/17 01:03:31;;;;;;;15.98;9.75;;;;;;;3.31;85.46;96735.78;4850426;29;20052;-74
2020/12/17 01:06:12;;;;;;;14.02;10.30;;;;;;;3.30;85.50;96741.13;4892025;29;20047;-75
2020/12/17 01:09:17;;;;;;;;;;;;;;;;;;;;;
2020/12/17 01:11:47;;;;;;;13.30;9.93;;;;;;;3.27;85.53;96750.03;4897540;29;20496;-75
2020/12/17 01:14:29;;;;;;;17.60;11.25;;;;;;;3.27;85.51;96754.41;4899610;29;20079;-75
2020/12/17 01:17:21;;;;;;;14.75;9.80;;;;;;;3.24;85.40;96743.41;4905628;29;20056;-75
2020/12/17 01:19:53;;;;;;;15.55;10.18;;;;;;;3.23;85.29;96740.97;4883921;29;20040;-75
2020/12/17 01:22:23;;;;;;;12.77;9.63;;;;;;;3.22;85.22;96741.94;4899855;29;20056;-75
2020/12/17 01:28:32;;;;;;;14.30;9.60;;;;;;;3.13;84.75;96742.91;4875716;29;20423;-75
2020/12/17 01:31:07;;;;;;;14.48;9.48;;;;;;;3.14;85.17;96747.16;4899320;29;20051;-74
2020/12/17 01:33:37;;;;;;;13.07;9.88;;;;;;;3.12;85.20;96751.69;4899264;29;20041;-75
2020/12/17 01:36:14;;;;;;;15.43;10.00;;;;;;;3.12;85.22;96755.06;4898988;29;20055;-75
2020/12/17 01:39:04;;;;;;;14.13;10.25;;;;;;;3.12;85.25;96762.03;4897896;29;20048;-76
2020/12/17 01:41:30;;;;;;;13.38;10.20;;;;;;;3.12;85.37;96764.63;4902816;29;20044;-75
2020/12/17 01:44:01;;;;;;;14.35;10.20;;;;;;;3.09;85.25;96772.72;4889178;29;20055;-75
2020/12/17 01:46:28;;;;;;;13.45;9.82;;;;;;;3.08;85.23;96771.13;4899397;29;20051;-75
2020/12/17 01:48:55;;;;;;;13.70;10.02;;;;;;;3.06;85.00;96773.84;4899124;29;20508;-75
2020/12/17 01:51:21;;;;;;;14.43;10.13;;;;;;;3.05;84.95;96778.25;4898870;29;20033;-75
2020/12/17 01:53:48;;;;;;;15.15;10.20;;;;;;;3.04;85.20;96781.81;4898457;29;20049;-75
2020/12/17 01:56:25;;;;;;;15.35;10.35;;;;;;;3.02;84.69;96780.34;4898743;29;20051;-75
2020/12/17 01:59:13;;;;;;;15.38;9.65;;;;;;;2.98;84.64;96781.63;4899125;29;20438;-73
2020/12/17 02:02:03;;;;;;;11.52;8.85;;;;;;;2.91;83.78;96781.47;4897863;29;20040;-74
2020/12/17 02:04:29;;;;;;;12.65;9.35;;;;;;;2.84;84.26;96785.69;4898889;29;20496;-77
2020/12/17 02:06:56;;;;;;;14.40;9.88;;;;;;;2.80;84.32;96784.38;4897859;29;20036;-73
2020/12/17 02:09:22;;;;;;;12.63;9.23;;;;;;;2.77;84.36;96793.28;4897692;29;20052;-73
2020/12/17 02:11:56;;;;;;;12.98;9.70;;;;;;;2.73;84.28;96786.81;4881060;29;20048;-74
2020/12/17 02:14:23;;;;;;;12.82;9.00;;;;;;;2.68;84.29;96791.63;4898378;29;20036;-76
2020/12/17 02:16:50;;;;;;;12.63;9.20;;;;;;;2.67;84.29;96792.63;4882146;29;20040;-74
2020/12/17 02:19:16;;;;;;;14.80;9.43;;;;;;;2.64;84.46;96790.34;4898374;29;20458;-73
2020/12/17 02:21:43;;;;;;;14.40;10.13;;;;;;;2.63;84.28;96793.91;4898323;29;20045;-73
2020/12/17 02:24:10;;;;;;;13.30;10.07;;;;;;;2.63;84.52;96793.91;4898443;29;20036;-73
2020/12/17 02:26:36;;;;;;;13.23;9.52;;;;;;;2.62;84.60;96795.69;4898134;29;20040;-74
2020/12/17 02:29:03;;;;;;;13.57;10.02;;;;;;;2.59;84.64;96798.59;4898641;29;20036;-76
2020/12/17 02:31:29;;;;;;;14.40;9.68;;;;;;;2.58;84.57;96803.91;4898321;29;20036;-75
2020/12/17 02:33:56;;;;;;;14.38;9.65;;;;;;;2.55;84.44;96806.84;4898396;29;20040;-75
2020/12/17 02:36:22;;;;;;;12.73;9.07;;;;;;;2.51;84.42;96801.16;4896750;29;20047;-75
2020/12/17 02:38:48;;;;;;;14.85;9.52;;;;;;;2.51;84.30;96792.59;4898176;29;20393;-75
2020/12/17 02:41:14;;;;;;;15.32;9.70;;;;;;;2.51;84.36;96803.75;4898133;29;20052;-75
2020/12/17 02:43:40;;;;;;;18.35;11.70;;;;;;;2.52;84.69;96799.38;4898122;29;20465;-74
2020/12/17 02:46:07;;;;;;;13.68;10.15;;;;;;;2.52;84.77;96801.97;4897962;29;20040;-75
2020/12/17 02:48:34;;;;;;;15.10;10.48;;;;;;;2.54;84.64;96794.84;4898236;29;20047;-75
2020/12/17 02:51:00;;;;;;;17.70;10.95;;;;;;;2.55;84.74;96794.69;4897793;29;20051;-75
2020/12/17 02:53:26;;;;;;;16.15;10.95;;;;;;;2.54;84.85;96793.09;4898091;29;20048;-75
2020/12/17 02:55:53;;;;;;;25.77;15.43;;;;;;;2.57;85.08;96794.53;4898047;29;20045;-75
2020/12/17 02:58:19;;;;;;;24.40;14.38;;;;;;;2.53;85.35;96788.88;4898090;29;20047;-76
2020/12/17 03:00:45;;;;;;;20.30;13.13;;;;;;;2.52;85.08;96789.84;4898030;29;20056;-75
2020/12/17 03:03:11;;;;;;;18.40;12.77;;;;;;;2.54;85.24;96781.91;4897956;29;20377;-75
2020/12/17 03:05:37;;;;;;;32.42;18.25;;;;;;;2.56;86.86;96792.91;4898145;29;20541;-76
2020/12/17 03:08:03;;;;;;;27.58;16.95;;;;;;;2.58;86.98;96791.81;4881786;29;20041;-75
2020/12/17 03:10:29;;;;;;;30.60;18.10;;;;;;;2.62;86.86;96797.44;4897957;29;20398;-75
2020/12/17 03:12:56;;;;;;;24.88;15.18;;;;;;;2.64;86.62;96800.69;4897926;29;20044;-75
2020/12/17 03:15:22;;;;;;;29.40;16.20;;;;;;;2.66;87.04;96803.13;4897711;29;20041;-74
2020/12/17 03:17:48;;;;;;;23.48;14.52;;;;;;;2.66;86.61;96791.00;4897695;29;20044;-76
2020/12/17 03:20:14;;;;;;;32.28;18.00;;;;;;;2.68;86.83;96791.63;4880958;29;20049;-75
2020/12/17 03:22:40;;;;;;;29.25;16.98;;;;;;;2.68;86.69;96796.81;4897863;29;20385;-75
2020/12/17 03:25:09;;;;;;;25.70;15.88;;;;;;;2.69;86.60;96792.44;4881115;29;20404;-75
2020/12/17 03:27:35;;;;;;;28.27;16.77;;;;;;;2.67;86.81;96800.41;4898180;29;20466;-75
2020/12/17 03:30:05;;;;;;;24.63;15.20;;;;;;;2.68;86.72;96809.78;4897301;29;20051;-74
2020/12/17 03:32:31;;;;;;;24.88;16.13;;;;;;;2.68;86.48;96806.38;4897546;29;20040;-75
2020/12/17 03:34:57;;;;;;;26.02;16.08;;;;;;;2.66;86.55;96800.53;4897868;29;20393;-75
2020/12/17 03:37:24;;;;;;;29.05;16.75;;;;;;;2.62;86.90;96802.63;4897743;29;20037;-74
2020/12/17 03:39:50;;;;;;;30.63;17.63;;;;;;;2.60;87.13;96799.38;4899091;29;20036;-75
2020/12/17 03:42:17;;;;;;;29.70;15.63;;;;;;;2.60;86.90;96804.56;4900987;29;20041;-75
2020/12/17 03:44:44;;;;;;;33.17;18.23;;;;;;;2.62;86.92;96805.22;4900865;29;20052;-76
2020/12/17 03:47:10;;;;;;;26.48;16.33;;;;;;;2.62;87.12;96803.47;4901275;29;20041;-75
2020/12/17 03:49:37;;;;;;;25.83;15.68;;;;;;;2.64;87.12;96805.88;4901061;29;20457;-75
2020/12/17 03:52:04;;;;;;;24.27;14.68;;;;;;;2.66;86.97;96809.13;4901236;29;20068;-75
2020/12/17 03:54:31;;;;;;;28.65;15.73;;;;;;;2.67;87.28;96805.56;4900855;29;20053;-75
2020/12/17 03:56:57;;;;;;;26.38;16.33;;;;;;;2.66;87.59;96814.28;4901099;29;20051;-75
2020/12/17 03:59:23;;;;;;;26.67;15.23;;;;;;;2.66;87.78;96816.09;4900920;29;20041;-74
2020/12/17 04:01:49;;;;;;;25.63;14.77;;;;;;;2.66;87.67;96813.50;4883878;29;20043;-75
2020/12/17 04:04:15;;;;;;;25.45;15.38;;;;;;;2.68;87.36;96814.94;4901019;29;20381;-75
2020/12/17 04:06:41;;;;;;;23.38;14.43;;;;;;;2.69;87.62;96811.41;4900638;29;20039;-75
2020/12/17 04:09:07;;;;;;;24.42;15.35;;;;;;;2.69;87.55;96813.16;4884463;29;20048;-75
2020/12/17 04:11:33;;;;;;;22.73;14.13;;;;;;;2.68;87.52;96817.53;4900743;29;20389;-75
2020/12/17 04:14:01;;;;;;;27.95;16.58;;;;;;;2.66;87.40;96816.88;4900674;29;20048;-74
2020/12/17 04:16:27;;;;;;;24.17;15.20;;;;;;;2.66;87.42;96811.69;4900568;29;20051;-75
2020/12/17 04:18:53;;;;;;;23.63;15.45;;;;;;;2.63;87.77;96812.84;4907026;29;20044;-76
2020/12/17 04:21:19;;;;;;;22.25;14.75;;;;;;;2.63;87.56;96806.84;4901953;29;20044;-75
2020/12/17 04:23:45;;;;;;;25.85;15.02;;;;;;;2.62;87.41;96811.22;4884818;29;20063;-75
2020/12/17 04:26:13;;;;;;;24.35;14.63;;;;;;;2.59;87.36;96803.75;4900525;29;20471;-75
2020/12/17 04:28:39;;;;;;;29.35;15.32;;;;;;;2.57;87.55;96804.91;4900259;29;20032;-75
2020/12/17 04:31:05;;;;;;;24.23;14.60;;;;;;;2.53;87.49;96799.22;4883662;29;20040;-75
2020/12/17 04:33:31;;;;;;;23.90;14.63;;;;;;;2.53;87.61;96796.63;4900216;29;20037;-74
2020/12/17 04:35:57;;;;;;;22.73;14.30;;;;;;;2.54;87.68;96798.28;4900458;29;20472;-75
2020/12/17 04:38:24;;;;;;;19.08;12.98;;;;;;;2.55;87.79;96796.47;4900277;29;20037;-75
2020/12/17 04:40:50;;;;;;;20.58;12.82;;;;;;;2.56;87.60;96798.91;4900283;29;20047;-75
2020/12/17 04:43:16;;;;;;;22.95;14.10;;;;;;;2.57;87.55;96804.91;4900213;29;20369;-75
2020/12/17 04:45:42;;;;;;;20.90;12.93;;;;;;;2.54;87.35;96806.03;4900067;29;20036;-75
2020/12/17 04:48:15;;;;;;;20.08;12.80;;;;;;;2.56;87.52;96813.63;4900488;29;20485;-75
2020/12/17 04:50:42;;;;;;;25.08;14.25;;;;;;;2.54;87.75;96818.97;4899863;29;20047;-75
2020/12/17 04:53:13;;;;;;;24.10;14.15;;;;;;;2.54;87.60;96818.97;4899611;29;20052;-75
2020/12/17 04:55:41;;;;;;;22.70;13.35;;;;;;;2.55;87.75;96827.56;4886977;29;20056;-75
2020/12/17 04:58:09;;;;;;;20.33;13.55;;;;;;;2.54;87.40;96825.91;4899830;29;20040;-75
2020/12/17 05:00:40;;;;;;;21.73;13.35;;;;;;;2.50;87.14;96825.44;4898479;29;20041;-75
2020/12/17 05:03:12;;;;;;;19.13;12.90;;;;;;;2.51;87.08;96832.22;4900303;29;20035;-75
2020/12/17 05:05:39;;;;;;;20.17;13.43;;;;;;;2.49;86.81;96828.19;4899068;29;20051;-75
2020/12/17 05:08:06;;;;;;;20.65;13.20;;;;;;;2.46;86.95;96823.28;4900093;29;20048;-75
2020/12/17 05:10:32;;;;;;;22.10;13.77;;;;;;;2.43;87.01;96835.59;4898493;29;20366;-75
2020/12/17 05:12:58;;;;;;;17.60;12.38;;;;;;;2.41;86.99;96831.53;4899261;29;20036;-75
2020/12/17 05:15:25;;;;;;;23.33;14.25;;;;;;;2.40;86.92;96833.31;4898787;29;20400;-75
2020/12/17 05:17:52;;;;;;;19.95;12.82;;;;;;;2.39;87.19;96838.66;4899627;29;20116;-75
2020/12/17 05:20:19;;;;;;;19.15;12.27;;;;;;;2.37;86.96;96840.59;4899156;29;20045;-74
2020/12/17 05:22:46;;;;;;;22.63;13.32;;;;;;;2.33;87.06;96840.09;4899480;29;20037;-75
2020/12/17 05:25:14;;;;;;;20.98;12.77;;;;;;;2.29;87.08;96841.38;4899620;29;20386;-75
2020/12/17 05:27:42;;;;;;;21.52;13.50;;;;;;;2.28;87.20;96857.06;4899267;29;20382;-75
2020/12/17 05:30:08;;;;;;;20.25;12.63;;;;;;;2.26;87.07;96859.78;4899821;29;20388;-75
2020/12/17 05:32:34;;;;;;;19.38;11.98;;;;;;;2.26;87.17;96864.16;4899628;29;20041;-77
2020/12/17 05:35:03;;;;;;;20.48;12.18;;;;;;;2.21;87.26;96857.69;4899034;29;20458;-75
2020/12/17 05:37:30;;;;;;;20.10;11.55;;;;;;;2.19;87.19;96863.97;4899227;29;20489;-75
2020/12/17 05:40:03;;;;;;;18.42;11.45;;;;;;;2.17;87.16;96866.72;4899257;29;20040;-74
2020/12/17 05:42:29;;;;;;;18.75;11.68;;;;;;;2.17;87.32;96869.31;4899421;29;20049;-75
2020/12/17 05:44:55;;;;;;;17.75;11.55;;;;;;;2.17;87.28;96866.72;4882220;29;20045;-74
2020/12/17 05:47:22;;;;;;;17.30;10.70;;;;;;;2.18;87.35;96872.69;4899228;29;20346;-75
2020/12/17 05:49:48;;;;;;;18.38;10.50;;;;;;;2.18;87.46;96875.28;4898889;29;20044;-75
2020/12/17 05:52:16;;;;;;;17.80;10.85;;;;;;;2.18;87.24;96883.88;4898861;29;20362;-75
2020/12/17 05:54:54;;;;;;;16.42;9.70;;;;;;;2.16;87.33;96878.03;4898614;29;20370;-75
2020/12/17 05:57:22;;;;;;;19.23;11.20;;;;;;;2.11;87.39;96879.47;4897314;29;20039;-75
2020/12/17 06:00:03;;;;;;;17.42;10.68;;;;;;;2.11;87.59;96885.44;4898839;29;20051;-75
2020/12/17 06:02:36;;;;;;;17.05;10.40;;;;;;;2.08;87.34;96879.75;4881641;29;20028;-75
2020/12/17 06:05:06;;;;;;;15.47;9.97;;;;;;;2.08;87.38;96885.75;4898738;29;20048;-75
2020/12/17 06:07:34;;;;;;;15.73;10.43;;;;;;;2.06;87.46;96885.09;4898760;29;20024;-74
2020/12/17 06:10:05;;;;;;;14.38;9.65;;;;;;;2.03;87.55;96883.59;4897917;29;20061;-74
2020/12/17 06:12:36;;;;;;;16.05;9.55;;;;;;;2.01;87.64;96888.13;4898441;29;20044;-75
2020/12/17 06:15:06;;;;;;;15.73;10.60;;;;;;;2.01;87.61;96895.88;4898459;29;20039;-75
2020/12/17 06:17:38;;;;;;;15.93;9.88;;;;;;;2.01;87.66;96892.50;4883663;29;20033;-74
2020/12/17 06:20:07;;;;;;;18.88;11.05;;;;;;;2.02;87.53;96904.47;4897752;29;20052;-74
2020/12/17 06:22:34;;;;;;;14.15;9.68;;;;;;;2.01;87.67;96902.84;4898536;29;20052;-75
2020/12/17 06:25:00;;;;;;;16.35;9.18;;;;;;;1.99;87.70;96902.19;4898340;29;20053;-75
2020/12/17 06:27:31;;;;;;;11.80;8.57;;;;;;;1.99;87.61;96907.34;4898379;29;20040;-75
2020/12/17 06:30:06;;;;;;;14.20;9.38;;;;;;;1.99;87.49;96915.09;4898306;29;20052;-74
2020/12/17 06:32:36;;;;;;;15.00;9.18;;;;;;;1.98;87.48;96916.09;4898766;29;20032;-75
2020/12/17 06:35:26;;;;;;;14.32;8.63;;;;;;;2.01;87.59;96918.34;4898358;29;20032;-74
2020/12/17 06:37:54;;;;;;;16.48;8.65;;;;;;;2.01;87.51;96924.34;4898277;29;20036;-75
2020/12/17 06:40:28;;;;;;;15.30;9.25;;;;;;;2.02;87.68;96925.97;4898459;29;20048;-75
2020/12/17 06:42:55;;;;;;;13.63;8.20;;;;;;;2.01;87.78;96928.72;4898776;29;20032;-75
2020/12/17 06:45:31;;;;;;;13.32;8.75;;;;;;;2.00;87.74;96930.50;4897039;29;20041;-74
2020/12/17 06:47:58;;;;;;;14.98;8.65;;;;;;;2.02;87.79;96938.91;4897427;29;20076;-75
2020/12/17 06:50:28;;;;;;;14.27;8.57;;;;;;;2.02;87.59;96932.94;4898040;29;20359;-74
2020/12/17 06:53:06;;;;;;;12.55;7.95;;;;;;;2.05;87.93;96934.41;4902925;29;20512;-74
2020/12/17 06:55:45;;;;;;;14.70;9.77;;;;;;;2.04;87.66;96941.34;4900678;29;20059;-75
2020/12/17 06:58:22;;;;;;;14.18;8.85;;;;;;;2.00;87.50;96940.84;4899476;29;20490;-75
2020/12/17 07:00:54;;;;;;;11.90;8.35;;;;;;;1.99;87.57;96946.16;4897914;29;20461;-75
2020/12/17 07:03:48;;;;;;;14.00;9.13;;;;;;;2.00;87.47;96945.19;4898456;29;20056;-75
2020/12/17 07:06:21;;;;;;;11.82;8.02;;;;;;;1.98;87.37;96945.34;4897815;29;20047;-75
2020/12/17 07:08:53;;;;;;;12.85;8.65;;;;;;;2.00;87.46;96958.94;4896774;29;20039;-75
2020/12/17 07:11:46;;;;;;;16.55;9.50;;;;;;;2.03;87.80;96965.59;4898036;29;20031;-75
2020/12/17 07:14:34;;;;;;;13.70;8.77;;;;;;;2.06;87.84;96972.22;4897508;29;20040;-74
2020/12/17 07:17:05;;;;;;;14.98;9.02;;;;;;;2.05;87.90;96971.41;4901315;29;20044;-75
2020/12/17 07:19:44;;;;;;;14.60;8.05;;;;;;;2.09;87.95;96975.31;4901651;29;20041;-75
2020/12/17 07:22:15;;;;;;;11.82;8.18;;;;;;;2.12;88.30;96987.97;4901653;29;20041;-75
2020/12/17 07:24:48;;;;;;;11.43;7.80;;;;;;;2.15;88.18;96986.84;4890699;29;20477;-75
2020/12/17 07:27:17;;;;;;;13.23;8.35;;;;;;;2.18;88.08;96986.53;4901548;29;20037;-75
2020/12/17 07:29:46;;;;;;;13.05;8.32;;;;;;;2.19;88.11;96991.56;4901530;29;20368;-75
2020/12/17 07:32:29;;;;;;;13.80;8.82;;;;;;;2.24;88.18;96993.69;4901358;29;20035;-75
2020/12/17 07:35:07;;;;;;;15.07;8.32;;;;;;;2.29;88.11;96994.06;4900828;29;20036;-75
2020/12/17 07:37:53;;;;;;;13.13;7.93;;;;;;;2.33;88.19;97010.09;4901324;29;20369;-75
2020/12/17 07:40:25;;;;;;;13.75;7.65;;;;;;;2.34;88.10;97009.13;4901199;29;20044;-75
2020/12/17 07:43:00;;;;;;;12.45;8.45;;;;;;;2.37;88.23;97021.75;4901153;29;20369;-75
2020/12/17 07:45:46;;;;;;;12.68;8.80;;;;;;;2.37;88.35;97016.59;4901051;29;20028;-74
2020/12/17 07:48:47;;;;;;;15.07;8.75;;;;;;;2.38;88.29;97024.22;4901012;29;20047;-75
2020/12/17 07:51:14;;;;;;;15.43;8.25;;;;;;;2.38;88.22;97024.22;4901059;29;20029;-74
2020/12/17 07:53:47;;;;;;;16.08;9.55;;;;;;;2.42;88.39;97032.50;4900989;29;20052;-74
2020/12/17 07:56:15;;;;;;;13.00;8.30;;;;;;;2.44;88.05;97033.16;4887818;29;20052;-74
2020/12/17 07:58:42;;;;;;;11.30;6.65;;;;;;;2.50;89.17;97042.06;4900737;29;20055;-74
2020/12/17 08:01:10;;;;;;;15.73;9.38;;;;;;;2.74;90.61;97037.03;4900759;29;20466;-75
2020/12/17 08:03:44;;;;;;;15.93;8.45;;;;;;;2.81;88.41;97043.25;4900467;29;20053;-74
2020/12/17 08:06:13;;;;;;;11.40;7.97;;;;;;;2.80;87.85;97033.84;4901059;29;20052;-74
2020/12/17 08:08:40;;;;;;;13.85;9.30;;;;;;;2.82;87.92;97033.69;4899983;29;20393;-74
2020/12/17 08:11:08;;;;;;;11.88;7.50;;;;;;;2.82;87.62;97025.91;4900520;29;20040;-75
2020/12/17 08:13:34;;;;;;;11.60;7.97;;;;;;;2.84;88.00;97034.34;4899361;29;20037;-75
2020/12/17 08:16:04;;;;;;;12.27;8.40;;;;;;;2.88;88.07;97032.25;4900377;29;20032;-75
2020/12/17 08:18:34;;;;;;;13.57;8.85;;;;;;;2.90;87.75;97028.56;4900482;29;20032;-75
2020/12/17 08:21:08;;;;;;;13.30;8.38;;;;;;;2.93;87.59;97027.41;4899178;29;20048;-74
2020/12/17 08:23:40;;;;;;;14.15;8.73;;;;;;;2.92;87.78;97021.44;4900561;29;20369;-75
2020/12/17 08:26:10;;;;;;;13.55;8.52;;;;;;;2.96;87.71;97029.69;4900264;29;20041;-75
2020/12/17 08:28:43;;;;;;;12.43;8.23;;;;;;;2.98;87.95;97036.38;4899085;29;20461;-74
2020/12/17 08:31:23;;;;;;;11.63;8.47;;;;;;;2.99;87.91;97029.41;4899891;29;20048;-75
2020/12/17 08:33:56;;;;;;;12.75;8.18;;;;;;;3.01;87.95;97030.84;4899444;29;20037;-75
2020/12/17 08:36:24;;;;;;;12.70;8.40;;;;;;;3.03;88.15;97028.91;4900237;29;20036;-75
2020/12/17 08:38:55;;;;;;;12.82;8.48;;;;;;;3.08;87.97;97038.00;4899908;29;20051;-75
2020/12/17 08:41:26;;;;;;;12.77;7.90;;;;;;;3.04;87.35;97035.75;4899903;29;20052;-74
2020/12/17 08:43:54;;;;;;;12.65;8.48;;;;;;;3.07;87.65;97041.56;4900185;29;20450;-74
2020/12/17 08:46:25;;;;;;;12.85;8.10;;;;;;;3.08;87.75;97043.19;4900061;29;20393;-74
2020/12/17 08:48:52;;;;;;;16.23;7.88;;;;;;;3.11;87.67;97041.09;4900220;29;20055;-75
2020/12/17 08:51:19;;;;;;;14.35;8.70;;;;;;;3.09;87.28;97045.63;4899861;29;20033;-75
2020/12/17 08:53:46;;;;;;;15.65;8.70;;;;;;;3.08;87.35;97040.59;4900195;29;20060;-74
2020/12/17 08:56:21;;;;;;;16.30;9.50;;;;;;;3.08;87.56;97056.16;4899655;29;20063;-75
2020/12/17 08:58:51;;;;;;;12.18;8.10;;;;;;;3.07;87.66;97052.75;4899714;29;20043;-74
2020/12/17 09:01:27;;;;;;;14.93;9.32;;;;;;;3.16;87.81;97063.97;4899639;29;20466;-75
2020/12/17 09:03:55;;;;;;;14.65;9.20;;;;;;;3.20;87.62;97060.91;4900101;29;20434;-75
2020/12/17 09:06:30;;;;;;;18.50;9.07;;;;;;;3.28;87.69;97067.09;4899518;29;20036;-75
2020/12/17 09:09:16;;;;;;;10.13;6.50;;;;;;;3.99;100.00;97066.63;4899636;29;20048;-75
2020/12/17 09:11:49;;;;;;;14.68;7.97;;;;;;;4.80;100.00;97064.13;4899480;29;20074;-75
2020/12/17 09:14:19;;;;;;;13.77;8.05;;;;;;;5.01;89.67;97068.78;4899315;29;20040;-75
2020/12/17 09:16:51;;;;;;;15.82;9.57;;;;;;;4.81;86.39;97074.34;4899330;29;20048;-75
2020/12/17 09:19:18;;;;;;;15.55;9.52;;;;;;;4.59;85.50;97083.63;4899573;29;20406;-74
2020/12/17 09:21:53;;;;;;;14.93;8.73;;;;;;;4.39;85.36;97080.56;4899323;29;20044;-74
2020/12/17 09:24:40;;;;;;;12.38;8.27;;;;;;;4.18;85.09;97077.63;4899124;29;20135;-74
2020/12/17 09:27:17;;;;;;;13.40;8.05;;;;;;;4.18;85.86;97077.63;4899465;29;20378;-75
2020/12/17 09:30:07;;;;;;;16.27;9.45;;;;;;;4.46;86.79;97080.72;4899732;29;20393;-74
2020/12/17 09:32:36;;;;;;;15.10;9.02;;;;;;;4.91;87.47;97084.56;4901798;29;20041;-73
2020/12/17 09:35:12;;;;;;;14.80;8.80;;;;;;;5.29;86.19;97074.34;4900478;29;20036;-75
2020/12/17 09:37:55;;;;;;;14.82;8.55;;;;;;;5.32;84.76;97086.22;4897238;29;20048;-75
2020/12/17 09:40:23;;;;;;;13.38;8.88;;;;;;;5.17;84.07;97083.53;4899319;29;20036;-75
2020/12/17 09:43:22;;;;;;;17.30;9.57;;;;;;;4.90;83.70;97076.94;4898722;29;20171;-75
2020/12/17 09:45:50;;;;;;;17.40;9.52;;;;;;;4.71;84.46;97083.31;4899268;29;20036;-76
2020/12/17 09:48:27;;;;;;;17.27;9.20;;;;;;;4.65;84.32;97092.56;4898161;29;20055;-74
2020/12/17 09:50:56;;;;;;;16.30;9.52;;;;;;;4.54;84.56;97085.13;4898888;29;20043;-76
2020/12/17 09:53:24;;;;;;;13.35;8.88;;;;;;;4.53;85.18;97097.28;4906420;29;20052;-75
2020/12/17 09:55:51;;;;;;;14.30;9.23;;;;;;;4.79;85.84;97094.50;4898545;29;20049;-75
2020/12/17 09:58:18;;;;;;;14.75;9.27;;;;;;;4.89;85.09;97086.50;4912924;29;20474;-75
2020/12/17 10:00:45;;;;;;;16.27;9.20;;;;;;;5.03;85.33;97096.22;4898451;29;20051;-74
2020/12/17 10:03:12;;;;;;;13.88;8.52;;;;;;;5.08;85.26;97098.31;4898220;29;20033;-75
2020/12/17 10:05:40;;;;;;;14.57;9.30;;;;;;;5.07;85.02;97089.72;4898515;29;20055;-74
2020/12/17 10:08:07;;;;;;;17.60;9.75;;;;;;;5.02;84.92;97091.22;4898226;29;20033;-74
2020/12/17 10:10:34;;;;;;;19.23;9.68;;;;;;;4.97;84.64;97086.47;4898038;29;20048;-74
2020/12/17 10:13:02;;;;;;;16.98;10.07;;;;;;;4.87;84.56;97085.84;4898024;29;20045;-74
2020/12/17 10:15:29;;;;;;;14.57;8.82;;;;;;;4.85;84.96;97083.44;4898303;29;20035;-73
2020/12/17 10:17:56;;;;;;;15.02;8.70;;;;;;;4.85;85.18;97088.63;4898240;29;20041;-73
2020/12/17 10:20:23;;;;;;;17.38;10.02;;;;;;;4.86;84.97;97092.03;4898210;29;20409;-73
2020/12/17 10:22:50;;;;;;;18.20;9.85;;;;;;;4.83;85.12;97100.16;4898382;29;20048;-73
2020/12/17 10:25:23;;;;;;;15.32;9.80;;;;;;;4.80;85.10;97100.50;4898035;29;20068;-73
2020/12/17 10:27:52;;;;;;;13.38;9.32;;;;;;;4.79;85.12;97096.28;4898642;29;20053;-74
2020/12/17 10:30:19;;;;;;;19.00;10.55;;;;;;;4.86;85.50;97097.25;4898189;29;20488;-74
2020/12/17 10:32:45;;;;;;;19.30;9.82;;;;;;;4.93;85.53;97099.97;4898287;29;20401;-74
2020/12/17 10:35:12;;;;;;;18.10;10.52;;;;;;;4.99;85.37;97094.94;4897949;29;20041;-73
2020/12/17 10:37:45;;;;;;;18.02;9.73;;;;;;;5.00;85.11;97104.38;4898071;29;20494;-74
2020/12/17 10:40:12;;;;;;;18.80;10.30;;;;;;;5.04;85.43;97092.66;4898504;29;20044;-73
2020/12/17 10:42:40;;;;;;;15.88;10.23;;;;;;;5.28;85.68;97091.75;4898121;29;20462;-74
2020/12/17 10:45:08;;;;;;;20.70;10.88;;;;;;;5.72;85.92;97092.22;4898088;29;20040;-74
2020/12/17 10:47:36;;;;;;;15.50;9.88;;;;;;;6.15;84.67;97088.22;4898382;29;20379;-73
2020/12/17 10:50:07;;;;;;;16.60;9.55;;;;;;;6.55;84.07;97099.34;4901031;29;20044;-73
2020/12/17 10:52:35;;;;;;;14.88;9.73;;;;;;;6.85;83.71;97094.19;4902184;29;20478;-73
2020/12/17 10:55:03;;;;;;;14.98;9.25;;;;;;;7.00;82.48;97095.00;4889285;29;20047;-73
2020/12/17 10:57:29;;;;;;;17.08;9.50;;;;;;;6.97;81.97;97091.91;4891500;29;20493;-73
2020/12/17 10:59:56;;;;;;;16.65;9.00;;;;;;;6.84;81.70;97092.53;4892671;29;20923;-74
2020/12/17 11:02:23;;;;;;;16.40;9.90;;;;;;;6.67;81.87;97097.09;4896087;29;20064;-75
2020/12/17 11:04:49;;;;;;;16.92;9.07;;;;;;;6.54;82.16;97102.91;4892192;29;20055;-74
2020/12/17 11:07:16;;;;;;;15.90;10.07;;;;;;;6.49;82.52;97110.47;4887407;29;20055;-74
2020/12/17 11:09:43;;;;;;;17.65;10.02;;;;;;;6.45;82.90;97101.38;4889477;29;20053;-76
2020/12/17 11:12:09;;;;;;;18.50;10.70;;;;;;;6.43;83.07;97105.94;4895787;29;20045;-73
2020/12/17 11:14:36;;;;;;;22.95;16.17;;;;;;;6.41;83.36;97107.91;4896609;29;20064;-73
2020/12/17 11:17:03;;;;;;;25.42;20.00;;;;;;;6.40;83.24;97108.88;4891525;29;20045;-73
2020/12/17 11:19:30;;;;;;;22.25;15.23;;;;;;;6.42;83.51;97112.94;4891901;29;20044;-73
2020/12/17 11:22:00;;;;;;;18.20;12.07;;;;;;;6.44;83.52;97104.94;4871808;29;20049;-73
2020/12/17 11:24:27;;;;;;;32.05;23.00;;;;;;;6.46;83.49;97102.97;4889162;29;20044;-74
2020/12/17 11:26:53;;;;;;;20.40;12.88;;;;;;;6.47;83.78;97102.81;4896405;29;20048;-74
2020/12/17 11:29:20;;;;;;;20.17;13.23;;;;;;;6.53;83.87;97098.69;4888792;29;20037;-73
2020/12/17 11:31:47;;;;;;;19.35;11.70;;;;;;;6.58;83.83;97101.56;4889936;29;20033;-74
2020/12/17 11:34:14;;;;;;;16.38;10.85;;;;;;;6.60;83.89;97104.81;4895333;29;20045;-74
2020/12/17 11:36:42;;;;;;;21.80;13.15;;;;;;;6.63;83.85;97096.63;4873655;29;20467;-73
2020/12/17 11:39:08;;;;;;;18.70;12.63;;;;;;;6.68;83.77;97098.72;4894765;29;20053;-74
2020/12/17 11:41:34;;;;;;;18.20;12.25;;;;;;;6.72;83.62;97086.97;4892811;29;20049;-73
2020/12/17 11:44:00;;;;;;;16.88;11.38;;;;;;;6.76;83.47;97088.22;4890831;29;20040;-74
2020/12/17 11:46:26;;;;;;;17.05;11.32;;;;;;;6.81;83.74;97093.72;4890523;29;20056;-73
2020/12/17 11:48:53;;;;;;;16.75;9.82;;;;;;;6.87;83.71;97098.22;4894517;29;20056;-73
2020/12/17 11:51:19;;;;;;;17.02;9.70;;;;;;;6.90;83.73;97095.25;4893198;29;20041;-73